Hollis, Oklahoma
Current Conditions -  °F | °C
As of 12:53 AM on Wednesday 22 Oct 2014 (Local Time) from KCDS Reporting Station
Clear Clear  
Wind Chill: 60°   Ceiling: Unl
Heat Index: 60°   Visibility: 10mi
Dew Point: 49°   Wind: 8mph
Humidity: 67%   Direction: 170°S
Pressure: 30.06"   Gusts: NA
Location:  34.69°N, 99.91°W
Report Text: KCDS 220553Z AUTO 17007KT 10SM CLR 16/09 A3006 RMK AO2 SLP161 T01560094 10244 20150 402890144 51002
Loading
Personal Weather Stations






























Interactive Weather Map
Tropical Storm Tracking
New forecast layout! Learn more

10-Day Weather Forecast

Advertisements
Track Severe Weather on mobile